Lafalot — LAFALOT — position and weather

sailwx.info

Track history (hours):
 
Tides and Currents Weather Stations Pressure Air Temp Water Temp Dewpoint Dewpoint Depression Visibility Wind Speed Wind Dir Waves Ship Positions

Lafalot

Last reported at 2013-Aug-21 18:14 UTC. Time now 2014-Jul-23 22:13 UTC.
Position N 41°28' W 071°22'.
Warning: this ship's position is months out of date.

Length 13 m.

Type: Sailing vessel. MMSI: 338087469.

Date/timePositionNaut miles runAvg speedWind from/ knotsBaromVisibWave heightAir tempDewpointWater temp
2013-Aug-21 18:14N 41°28' W 071°22'4 5.7
2013-Aug-21 17:34N 41°26' W 071°17'  
2013-Aug-18 11:31N 43°04' W 070°43'0 0.0
2013-Aug-17 19:31N 43°04' W 070°43'48 6.0
2013-Aug-17 11:33N 43°42' W 070°04'2 0.2
2013-Aug-17 00:28N 43°44' W 070°02'0 0.0
2013-Aug-16 23:19N 43°44' W 070°02'0 0.0
2013-Aug-16 22:31N 43°44' W 070°02'0 0.0
2013-Aug-16 18:33N 43°44' W 070°02'0 0.0
2013-Aug-16 17:30N 43°44' W 070°02'2 2.2
2013-Aug-16 16:33N 43°42' W 070°03'  
2013-Aug-12 14:20N 44°05' W 069°03'2 1.8
2013-Aug-12 13:08N 44°06' W 069°06'  
Track history (hours):
 
Tides and Currents Weather Stations Pressure Air Temp Water Temp Dewpoint Dewpoint Depression Visibility Wind Speed Wind Dir Waves Ship Positions

Lafalot

Last reported at 2013-Aug-21 18:14 UTC. Time now 2014-Jul-23 22:13 UTC.
Position N 41°28' W 071°22'.
Warning: this ship's position is months out of date.

Length 13 m.

Type: Sailing vessel. MMSI: 338087469.

Date/timePositionNaut miles runAvg speedWind from/ knotsBaromVisibWave heightAir tempDewpointWater temp
2013-Aug-21 18:14N 41°28' W 071°22'4 5.7
2013-Aug-21 17:34N 41°26' W 071°17'  
2013-Aug-18 11:31N 43°04' W 070°43'0 0.0
2013-Aug-17 19:31N 43°04' W 070°43'48 6.0
2013-Aug-17 11:33N 43°42' W 070°04'2 0.2
2013-Aug-17 00:28N 43°44' W 070°02'0 0.0
2013-Aug-16 23:19N 43°44' W 070°02'0 0.0
2013-Aug-16 22:31N 43°44' W 070°02'0 0.0
2013-Aug-16 18:33N 43°44' W 070°02'0 0.0
2013-Aug-16 17:30N 43°44' W 070°02'2 2.2
2013-Aug-16 16:33N 43°42' W 070°03'  
2013-Aug-12 14:20N 44°05' W 069°03'2 1.8
2013-Aug-12 13:08N 44°06' W 069°06'  

Dump ship's entire track history